createdAt,value
2019-03-19T00:02:03.167Z,3.64
2019-03-19T00:04:33.685Z,3.69
2019-03-19T00:07:04.240Z,3.67
2019-03-19T00:09:34.744Z,3.63
2019-03-19T00:12:05.269Z,3.56
2019-03-19T00:14:35.782Z,3.53
2019-03-19T00:17:06.338Z,3.47
2019-03-19T00:19:37.758Z,3.45
2019-03-19T00:22:08.309Z,3.40
2019-03-19T00:24:38.825Z,3.38
2019-03-19T00:27:09.370Z,3.37
2019-03-19T00:29:39.879Z,3.33
2019-03-19T00:32:10.431Z,3.29
2019-03-19T00:34:42.168Z,3.25
2019-03-19T00:37:12.721Z,3.25
2019-03-19T00:39:43.242Z,3.24
2019-03-19T00:42:13.778Z,3.25
2019-03-19T00:44:44.292Z,3.19
2019-03-19T00:47:14.848Z,3.21
2019-03-19T00:49:45.349Z,3.17
2019-03-19T00:52:15.912Z,3.19
2019-03-19T00:54:46.415Z,3.17
2019-03-19T00:57:17.875Z,3.09
2019-03-19T00:59:48.395Z,3.11
2019-03-19T01:02:18.939Z,3.15
2019-03-19T01:04:49.510Z,3.09
2019-03-19T01:07:20.915Z,3.06
2019-03-19T01:09:51.435Z,3.08
2019-03-19T01:12:21.973Z,3.04
2019-03-19T01:14:53.407Z,3.07
2019-03-19T01:17:23.674Z,3.06
2019-03-19T01:19:54.153Z,3.04
2019-03-19T01:22:24.423Z,3.03
2019-03-19T01:24:55.839Z,2.98
2019-03-19T01:27:26.387Z,2.98
2019-03-19T01:29:56.899Z,3.02
2019-03-19T01:32:27.443Z,3.08
2019-03-19T01:34:58.874Z,3.17
2019-03-19T01:37:29.441Z,3.27
2019-03-19T01:39:59.939Z,3.34
2019-03-19T01:42:30.491Z,3.39
2019-03-19T01:45:03.614Z,3.35
2019-03-19T01:47:33.994Z,3.32
2019-03-19T01:50:07.965Z,3.25
2019-03-19T01:52:38.438Z,3.21
2019-03-19T01:55:15.978Z,3.18
2019-03-19T01:57:47.485Z,3.12
2019-03-19T02:00:19.344Z,3.06
2019-03-19T02:02:56.969Z,3.07
2019-03-19T02:05:27.345Z,3.03
2019-03-19T02:07:58.806Z,3.00
2019-03-19T02:10:30.258Z,3.00
2019-03-19T02:13:00.786Z,3.02
2019-03-19T02:15:32.237Z,3.04
2019-03-19T02:18:03.685Z,2.97
2019-03-19T02:20:35.144Z,3.01
2019-03-19T02:23:06.602Z,2.97
2019-03-19T02:25:37.118Z,2.94
2019-03-19T02:28:08.577Z,2.88
2019-03-19T02:30:39.113Z,2.84
2019-03-19T02:33:09.631Z,2.81
2019-03-19T02:35:39.873Z,2.80
2019-03-19T02:38:11.320Z,2.79
2019-03-19T02:40:42.755Z,2.80
2019-03-19T02:43:13.308Z,2.76
2019-03-19T02:45:43.818Z,2.75
2019-03-19T02:48:15.283Z,2.74
2019-03-19T02:50:45.806Z,2.70
2019-03-19T02:53:16.346Z,2.72
2019-03-19T02:55:47.791Z,2.68
2019-03-19T02:58:19.244Z,2.67
2019-03-19T03:00:50.684Z,2.68
2019-03-19T03:03:22.155Z,2.60
2019-03-19T03:05:53.583Z,2.62
2019-03-19T03:08:23.860Z,2.58
2019-03-19T03:10:55.253Z,2.63
2019-03-19T03:13:26.726Z,2.69
2019-03-19T03:15:57.234Z,2.78
2019-03-19T03:18:28.710Z,2.83
2019-03-19T03:20:59.223Z,2.86
2019-03-19T03:23:29.768Z,2.87
2019-03-19T03:26:00.280Z,2.90
2019-03-19T03:28:33.277Z,2.95
2019-03-19T03:31:03.821Z,2.99
2019-03-19T03:33:35.259Z,3.12
2019-03-19T03:36:05.783Z,3.09
2019-03-19T03:38:37.239Z,3.07
2019-03-19T03:41:07.750Z,3.11
2019-03-19T03:43:38.297Z,3.19
2019-03-19T03:46:11.277Z,3.17
2019-03-19T03:48:41.800Z,3.12
2019-03-19T03:51:12.335Z,3.15
2019-03-19T03:53:42.860Z,3.14
2019-03-19T03:56:13.390Z,3.20
2019-03-19T03:58:43.634Z,3.29
2019-03-19T04:01:15.065Z,3.31
2019-03-19T04:03:46.577Z,3.30
2019-03-19T04:06:17.970Z,3.30
2019-03-19T04:08:48.293Z,3.34
2019-03-19T04:11:18.727Z,3.34
2019-03-19T04:13:49.258Z,3.42
2019-03-19T04:16:19.778Z,3.42
2019-03-19T04:18:50.306Z,3.44
2019-03-19T04:21:21.775Z,3.50
2019-03-19T04:23:52.283Z,3.52
2019-03-19T04:26:22.545Z,3.57
2019-03-19T04:28:53.963Z,3.61
2019-03-19T04:31:25.425Z,3.58
2019-03-19T04:33:56.862Z,3.56
2019-03-19T04:36:27.405Z,3.59
2019-03-19T04:38:59.155Z,3.62
2019-03-19T04:41:29.706Z,3.57
2019-03-19T04:44:01.139Z,3.59
2019-03-19T04:46:31.679Z,3.61
2019-03-19T04:49:03.419Z,3.62
2019-03-19T04:51:33.961Z,3.61
2019-03-19T04:54:04.493Z,3.61
2019-03-19T04:56:37.177Z,3.54
2019-03-19T04:59:07.692Z,3.57
2019-03-19T05:01:38.239Z,3.55
2019-03-19T05:04:10.900Z,3.59
2019-03-19T05:06:42.392Z,3.60
2019-03-19T05:09:12.883Z,3.66
2019-03-19T05:11:43.438Z,3.69
2019-03-19T05:14:14.866Z,3.69
2019-03-19T05:16:47.254Z,3.66
2019-03-19T05:19:18.689Z,3.69
2019-03-19T05:21:50.170Z,3.74
2019-03-19T05:24:20.698Z,3.83
2019-03-19T05:26:51.200Z,3.78
2019-03-19T05:29:23.573Z,3.77
2019-03-19T05:31:54.106Z,3.83
2019-03-19T05:34:24.648Z,3.81
2019-03-19T05:36:55.161Z,3.86
2019-03-19T05:39:25.694Z,3.79
2019-03-19T05:41:57.141Z,3.87
2019-03-19T05:44:27.672Z,3.88
2019-03-19T05:47:00.206Z,3.89
2019-03-19T05:49:31.820Z,3.86
2019-03-19T05:52:02.327Z,3.91
2019-03-19T05:54:32.866Z,3.95
2019-03-19T05:57:04.319Z,3.96
2019-03-19T05:59:34.843Z,4.02
2019-03-19T06:02:05.378Z,4.05
2019-03-19T06:04:35.920Z,4.09
2019-03-19T06:07:06.457Z,4.15
2019-03-19T06:09:39.526Z,4.28
2019-03-19T06:12:10.883Z,4.29
2019-03-19T06:14:41.400Z,4.12
2019-03-19T06:17:11.945Z,4.17
2019-03-19T06:19:42.476Z,4.27
2019-03-19T06:22:13.091Z,4.41
2019-03-19T06:24:43.827Z,4.47
2019-03-19T06:27:15.299Z,4.40
2019-03-19T06:29:45.810Z,4.38
2019-03-19T06:32:16.345Z,4.44
2019-03-19T06:34:46.878Z,4.51
2019-03-19T06:37:17.428Z,4.48
2019-03-19T06:39:47.928Z,4.48
2019-03-19T06:42:18.462Z,4.53
2019-03-19T06:44:48.994Z,4.52
2019-03-19T06:47:19.518Z,4.51
2019-03-19T06:49:50.044Z,4.52
2019-03-19T06:52:20.574Z,4.58
2019-03-19T06:54:51.106Z,4.49
2019-03-19T06:57:21.635Z,4.58
2019-03-19T06:59:53.087Z,4.64
2019-03-19T07:02:23.614Z,4.59
2019-03-19T07:04:54.140Z,4.69
2019-03-19T07:07:25.595Z,4.62
2019-03-19T07:09:56.131Z,4.87
2019-03-19T07:12:26.660Z,4.99
2019-03-19T07:14:57.203Z,5.01
2019-03-19T07:17:32.171Z,5.19
2019-03-19T07:20:08.925Z,5.42
2019-03-19T07:22:43.095Z,5.67
2019-03-19T07:25:13.445Z,5.62
2019-03-19T07:27:44.891Z,5.96
2019-03-19T07:30:20.112Z,6.20
2019-03-19T07:32:50.572Z,6.27
2019-03-19T07:35:21.104Z,6.03
2019-03-19T07:37:52.869Z,6.09
2019-03-19T07:40:23.414Z,5.98
2019-03-19T07:42:53.918Z,5.77
2019-03-19T07:45:26.111Z,5.92
2019-03-19T07:47:56.557Z,5.84
2019-03-19T07:50:27.029Z,5.85
2019-03-19T07:52:57.612Z,5.77
2019-03-19T07:55:28.090Z,6.01
2019-03-19T07:57:58.641Z,5.93
2019-03-19T08:00:29.192Z,6.11
2019-03-19T08:02:59.705Z,6.10
2019-03-19T08:05:33.409Z,6.14
2019-03-19T08:08:03.877Z,6.15
2019-03-19T08:10:35.920Z,6.23
2019-03-19T08:13:06.291Z,5.94
2019-03-19T08:15:36.656Z,6.12
2019-03-19T08:18:08.428Z,6.27
2019-03-19T08:20:40.159Z,6.27
2019-03-19T08:23:10.725Z,6.34
2019-03-19T08:25:42.752Z,6.19
2019-03-19T08:28:13.303Z,6.16
2019-03-19T08:30:43.815Z,6.16
2019-03-19T08:33:14.377Z,5.94
2019-03-19T08:35:46.742Z,6.03
2019-03-19T08:38:17.295Z,5.94
2019-03-19T08:40:50.977Z,5.91
2019-03-19T08:43:21.172Z,5.88
2019-03-19T08:45:52.525Z,5.97
2019-03-19T08:48:23.056Z,6.08
2019-03-19T08:50:53.602Z,6.11
2019-03-19T08:53:24.097Z,5.92
2019-03-19T08:55:54.957Z,5.95
2019-03-19T08:58:25.522Z,5.93
2019-03-19T09:00:57.236Z,6.05
2019-03-19T09:03:27.766Z,5.99
2019-03-19T09:05:58.300Z,6.05
2019-03-19T09:08:28.844Z,5.88
2019-03-19T09:11:00.276Z,5.70
2019-03-19T09:13:30.826Z,5.77
2019-03-19T09:16:02.951Z,5.66
2019-03-19T09:18:34.954Z,5.70
2019-03-19T09:21:05.463Z,5.85
2019-03-19T09:23:36.918Z,5.86
2019-03-19T09:26:08.369Z,6.05
2019-03-19T09:28:40.529Z,6.17
2019-03-19T09:31:10.983Z,6.03
2019-03-19T09:33:41.521Z,6.23
2019-03-19T09:36:13.287Z,6.38
2019-03-19T09:38:43.778Z,6.43
2019-03-19T09:41:14.298Z,6.28
2019-03-19T09:43:44.871Z,6.32
2019-03-19T09:46:15.354Z,6.36
2019-03-19T09:48:47.697Z,6.61
2019-03-19T09:51:17.959Z,6.82
2019-03-19T09:53:48.498Z,7.15
2019-03-19T09:56:19.979Z,7.02
2019-03-19T09:58:50.528Z,7.05
2019-03-19T10:01:21.024Z,7.14
2019-03-19T10:03:51.626Z,7.12
2019-03-19T10:06:22.081Z,7.16
2019-03-19T10:08:52.626Z,7.27
2019-03-19T10:11:24.352Z,7.10
2019-03-19T10:13:54.920Z,7.15
2019-03-19T10:16:25.267Z,7.06
2019-03-19T10:18:55.647Z,7.21
2019-03-19T10:21:26.178Z,7.47
2019-03-19T10:23:56.734Z,7.72
2019-03-19T10:26:29.055Z,7.57
2019-03-19T10:28:59.613Z,7.91
2019-03-19T10:31:30.141Z,7.85
2019-03-19T10:34:00.691Z,7.99
2019-03-19T10:36:33.349Z,8.34
2019-03-19T10:39:06.187Z,8.49
2019-03-19T10:41:36.533Z,8.68
2019-03-19T10:44:07.063Z,8.49
2019-03-19T10:46:39.583Z,8.56
2019-03-19T10:49:10.884Z,8.65
2019-03-19T10:51:43.261Z,8.50
2019-03-19T10:54:13.787Z,8.41
2019-03-19T10:56:45.236Z,8.65
2019-03-19T10:59:21.111Z,8.50
2019-03-19T11:01:54.595Z,8.40
2019-03-19T11:04:26.038Z,8.47
2019-03-19T11:06:56.575Z,8.28
2019-03-19T11:09:27.106Z,8.64
2019-03-19T11:11:57.657Z,8.56
2019-03-19T11:14:28.175Z,8.44
2019-03-19T11:16:58.516Z,8.40
2019-03-19T11:19:28.928Z,8.17
2019-03-19T11:21:59.466Z,8.04
2019-03-19T11:24:30.030Z,8.13
2019-03-19T11:27:00.578Z,7.93
2019-03-19T11:29:33.709Z,7.88
2019-03-19T11:32:05.599Z,8.05
2019-03-19T11:34:38.584Z,8.35
2019-03-19T11:37:09.088Z,8.67
2019-03-19T11:39:39.617Z,8.50
2019-03-19T11:42:11.163Z,8.32
2019-03-19T11:44:42.894Z,8.31
2019-03-19T11:47:14.588Z,8.15
2019-03-19T11:49:46.051Z,8.37
2019-03-19T11:52:16.565Z,8.53
2019-03-19T11:54:47.106Z,8.30
2019-03-19T11:57:17.655Z,8.34
2019-03-19T11:59:48.150Z,8.25
2019-03-19T12:02:25.803Z,8.35
2019-03-19T12:04:50.747Z,8.41
2019-03-19T12:07:22.213Z,8.48
2019-03-19T12:09:52.735Z,8.70
2019-03-19T12:12:23.264Z,9.16
2019-03-19T12:14:54.709Z,9.16
2019-03-19T12:17:25.050Z,9.38
2019-03-19T12:19:55.462Z,9.85
2019-03-19T12:22:26.007Z,10.08
2019-03-19T12:24:57.439Z,10.17
2019-03-19T12:27:28.902Z,10.54
2019-03-19T12:29:59.424Z,10.91
2019-03-19T12:32:29.950Z,10.84
2019-03-19T12:35:01.728Z,10.78
2019-03-19T12:37:35.407Z,10.60
2019-03-19T12:40:13.059Z,10.58
2019-03-19T12:42:46.282Z,10.37
2019-03-19T12:45:18.075Z,10.20
2019-03-19T12:47:48.806Z,10.31
2019-03-19T12:50:20.685Z,10.08
2019-03-19T12:52:52.335Z,10.29
2019-03-19T12:55:22.871Z,10.11
2019-03-19T12:57:53.388Z,10.17
2019-03-19T13:00:34.161Z,10.15
2019-03-19T13:03:02.106Z,9.77
2019-03-19T13:05:32.652Z,10.16
2019-03-19T13:08:03.187Z,10.51
2019-03-19T13:10:33.700Z,10.47
2019-03-19T13:13:04.713Z,10.70
2019-03-19T13:15:36.599Z,10.70
2019-03-19T13:18:07.182Z,10.85
2019-03-19T13:20:37.657Z,10.69
2019-03-19T13:23:09.118Z,10.54
2019-03-19T13:25:40.560Z,10.51
2019-03-19T13:28:12.021Z,10.11
2019-03-19T13:30:45.254Z,9.93
2019-03-19T13:33:14.628Z,9.66
2019-03-19T13:35:45.149Z,9.47
2019-03-19T13:38:16.600Z,9.54
2019-03-19T13:40:47.116Z,9.53
2019-03-19T13:43:17.649Z,9.62
2019-03-19T13:45:49.097Z,9.57
2019-03-19T13:48:19.641Z,9.07
2019-03-19T13:50:50.157Z,8.78
2019-03-19T13:53:20.710Z,8.47
2019-03-19T13:55:51.683Z,8.46
2019-03-19T13:58:22.059Z,8.74
2019-03-19T14:00:55.784Z,8.79
2019-03-19T14:03:24.651Z,8.80
2019-03-19T14:05:55.189Z,8.86
2019-03-19T14:08:25.706Z,8.64
2019-03-19T14:10:57.466Z,8.35
2019-03-19T14:13:28.001Z,8.29
2019-03-19T14:15:58.533Z,8.27
2019-03-19T14:18:29.053Z,8.29
2019-03-19T14:20:59.578Z,8.17
2019-03-19T14:23:30.120Z,8.15
2019-03-19T14:26:00.646Z,8.27
2019-03-19T14:28:31.187Z,8.31
2019-03-19T14:31:08.629Z,8.01
2019-03-19T14:33:35.036Z,7.99
2019-03-19T14:36:05.695Z,8.34
2019-03-19T14:38:46.516Z,8.52
2019-03-19T14:41:08.578Z,8.68
2019-03-19T14:43:40.194Z,8.80
2019-03-19T14:46:10.724Z,8.95
2019-03-19T14:48:41.260Z,8.93
2019-03-19T14:51:11.785Z,8.99
2019-03-19T14:53:42.323Z,8.81
2019-03-19T14:56:12.847Z,8.91
2019-03-19T14:58:44.351Z,8.80
2019-03-19T15:01:19.649Z,8.72
2019-03-19T15:03:51.637Z,8.76
2019-03-19T15:06:23.255Z,8.86
2019-03-19T15:09:05.087Z,8.91
2019-03-19T15:11:39.270Z,8.68
2019-03-19T15:14:18.089Z,8.68
2019-03-19T15:17:05.053Z,8.42
2019-03-19T15:19:33.070Z,8.45
2019-03-19T15:22:03.615Z,8.54
2019-03-19T15:24:35.375Z,8.54
2019-03-19T15:27:11.144Z,8.41
2019-03-19T15:29:48.402Z,8.47
2019-03-19T15:32:19.852Z,8.38
2019-03-19T15:34:50.381Z,8.20
2019-03-19T15:37:20.914Z,8.05
2019-03-19T15:39:51.439Z,8.21
2019-03-19T15:42:24.280Z,8.06
2019-03-19T15:44:56.231Z,7.86
2019-03-19T15:47:26.909Z,7.78
2019-03-19T15:50:02.515Z,7.78
2019-03-19T15:52:33.927Z,7.83
2019-03-19T15:55:09.615Z,7.62
2019-03-19T15:57:41.965Z,7.49
2019-03-19T16:00:19.104Z,7.54
2019-03-19T16:02:54.257Z,7.51
2019-03-19T16:05:27.346Z,7.31
2019-03-19T16:07:59.234Z,7.23
2019-03-19T16:10:29.764Z,7.23
2019-03-19T16:13:04.480Z,7.07
2019-03-19T16:15:35.332Z,6.98
2019-03-19T16:18:05.689Z,6.88
2019-03-19T16:20:37.683Z,6.82
2019-03-19T16:23:14.144Z,6.73
2019-03-19T16:25:47.619Z,6.58
2019-03-19T16:28:21.917Z,6.42
2019-03-19T16:30:54.272Z,6.31
2019-03-19T16:33:29.130Z,6.26
2019-03-19T16:36:01.284Z,6.24
2019-03-19T16:38:33.549Z,6.19
2019-03-19T16:41:05.408Z,6.16
2019-03-19T16:43:36.184Z,6.15
2019-03-19T16:46:06.779Z,6.15
2019-03-19T16:48:38.785Z,6.20
2019-03-19T16:51:09.282Z,6.23
2019-03-19T16:53:39.948Z,6.22
2019-03-19T16:56:10.320Z,6.18
2019-03-19T16:58:44.120Z,6.12
2019-03-19T17:01:22.141Z,6.06
2019-03-19T17:04:07.111Z,6.05
2019-03-19T17:06:46.796Z,5.94
2019-03-19T17:09:24.173Z,5.85
2019-03-19T17:12:01.983Z,5.82
2019-03-19T17:14:41.412Z,5.77
2019-03-19T17:17:15.466Z,5.69
2019-03-19T17:19:50.084Z,5.65
2019-03-19T17:22:20.479Z,5.56
2019-03-19T17:24:51.251Z,5.51
2019-03-19T17:27:23.475Z,5.48
2019-03-19T17:29:53.920Z,5.40
2019-03-19T17:32:26.012Z,5.26
2019-03-19T17:34:56.469Z,5.17
2019-03-19T17:37:30.072Z,5.13
2019-03-19T17:40:01.822Z,5.09
2019-03-19T17:42:42.083Z,5.05
2019-03-19T17:45:15.997Z,5.02
2019-03-19T17:47:49.806Z,4.98
2019-03-19T17:50:40.279Z,4.97
2019-03-19T17:53:17.489Z,4.95
2019-03-19T17:55:48.015Z,4.89
2019-03-19T17:58:18.555Z,4.84
2019-03-19T18:00:50.717Z,4.79
2019-03-19T18:03:22.569Z,4.72
2019-03-19T18:05:52.982Z,4.64
2019-03-19T18:08:24.686Z,4.56
2019-03-19T18:10:55.240Z,4.44
2019-03-19T18:13:27.374Z,4.33
2019-03-19T18:15:59.057Z,4.24
2019-03-19T18:18:30.787Z,4.20
2019-03-19T18:21:02.964Z,4.18
2019-03-19T18:23:33.390Z,4.16
2019-03-19T18:26:03.907Z,4.12
2019-03-19T18:28:34.477Z,4.12
2019-03-19T18:31:05.005Z,4.07
2019-03-19T18:33:35.888Z,4.10
2019-03-19T18:36:07.264Z,4.08
2019-03-19T18:38:40.544Z,4.07
2019-03-19T18:41:11.099Z,4.10
2019-03-19T18:43:45.507Z,4.09
2019-03-19T18:46:16.161Z,4.08
2019-03-19T18:48:46.724Z,4.10
2019-03-19T18:51:17.204Z,4.09
2019-03-19T18:53:49.832Z,4.06
2019-03-19T18:56:22.570Z,4.03
2019-03-19T18:58:54.532Z,4.00
2019-03-19T19:01:27.726Z,3.99
2019-03-19T19:03:59.983Z,3.93
2019-03-19T19:06:31.739Z,3.77
2019-03-19T19:09:05.131Z,3.73
2019-03-19T19:11:35.564Z,3.64
2019-03-19T19:14:06.698Z,3.55
2019-03-19T19:16:39.706Z,3.48
2019-03-19T19:19:12.342Z,3.34
2019-03-19T19:21:42.901Z,3.32
2019-03-19T19:24:30.113Z,3.26
2019-03-19T19:27:03.637Z,3.23
2019-03-19T19:29:36.153Z,3.25
2019-03-19T19:32:06.711Z,3.24
2019-03-19T19:34:37.067Z,3.26
2019-03-19T19:37:07.592Z,3.26
2019-03-19T19:39:40.269Z,3.21
2019-03-19T19:42:12.398Z,3.16
2019-03-19T19:44:42.864Z,3.23
2019-03-19T19:47:13.495Z,3.24
2019-03-19T19:49:45.149Z,3.19
2019-03-19T19:52:19.430Z,3.06
2019-03-19T19:54:50.341Z,3.10
2019-03-19T19:57:23.926Z,3.09
2019-03-19T19:59:57.703Z,2.95
2019-03-19T20:02:28.297Z,2.90
2019-03-19T20:05:02.879Z,2.87
2019-03-19T20:07:30.974Z,2.84
2019-03-19T20:10:01.365Z,2.71
2019-03-19T20:12:35.387Z,2.73
2019-03-19T20:15:08.632Z,2.59
2019-03-19T20:17:44.034Z,2.64
2019-03-19T20:20:30.792Z,2.68
2019-03-19T20:23:02.914Z,2.33
2019-03-19T20:25:33.447Z,2.08
2019-03-19T20:28:07.035Z,2.01
2019-03-19T20:30:37.582Z,1.81
2019-03-19T20:33:08.082Z,1.83
2019-03-19T20:35:38.615Z,1.85
2019-03-19T20:38:10.683Z,1.72
2019-03-19T20:40:41.224Z,1.75
2019-03-19T20:43:11.745Z,1.67
2019-03-19T20:45:43.203Z,1.56
2019-03-19T20:48:13.749Z,1.55
2019-03-19T20:50:44.253Z,1.56
2019-03-19T20:53:16.312Z,1.62
2019-03-19T20:55:46.900Z,1.65
2019-03-19T20:58:17.373Z,1.48
2019-03-19T21:00:48.982Z,1.38
2019-03-19T21:03:21.920Z,1.38
2019-03-19T21:05:54.343Z,1.36
2019-03-19T21:08:38.157Z,1.32
2019-03-19T21:11:12.891Z,1.29
2019-03-19T21:13:46.339Z,1.26
2019-03-19T21:16:16.884Z,1.24
2019-03-19T21:18:47.439Z,1.24
2019-03-19T21:21:19.539Z,1.23
2019-03-19T21:23:50.685Z,1.12
2019-03-19T21:26:21.182Z,1.12
2019-03-19T21:28:53.978Z,1.01
2019-03-19T21:31:26.638Z,1.01
2019-03-19T21:34:04.051Z,0.97
2019-03-19T21:36:34.688Z,1.00
2019-03-19T21:39:07.411Z,0.87
2019-03-19T21:41:42.060Z,0.81
2019-03-19T21:44:15.613Z,0.77
2019-03-19T21:46:48.206Z,0.73
2019-03-19T21:49:18.660Z,0.73
2019-03-19T21:51:50.618Z,0.60
2019-03-19T21:54:22.061Z,0.58
2019-03-19T21:56:56.848Z,0.54
2019-03-19T21:59:36.657Z,0.46
2019-03-19T22:02:16.047Z,0.55
2019-03-19T22:04:46.921Z,0.54
2019-03-19T22:07:22.623Z,0.51
2019-03-19T22:09:57.768Z,0.51
2019-03-19T22:12:31.676Z,0.50
2019-03-19T22:15:16.426Z,0.45
2019-03-19T22:17:47.147Z,0.42
2019-03-19T22:20:22.546Z,0.42
2019-03-19T22:22:53.591Z,0.25
2019-03-19T22:25:25.357Z,0.28
2019-03-19T22:27:55.697Z,0.28
2019-03-19T22:30:26.535Z,0.22
2019-03-19T22:32:57.261Z,0.21
2019-03-19T22:35:29.412Z,0.18
2019-03-19T22:37:59.887Z,0.07
2019-03-19T22:40:31.358Z,0.08
2019-03-19T22:43:01.868Z,-0.14
2019-03-19T22:45:32.268Z,-0.14
2019-03-19T22:48:02.804Z,-0.09
2019-03-19T22:50:33.175Z,-0.09
2019-03-19T22:53:03.557Z,-0.07
2019-03-19T22:55:33.925Z,-0.07
2019-03-19T22:58:05.637Z,-0.14
2019-03-19T23:00:37.826Z,-0.05
2019-03-19T23:03:10.264Z,0.03
2019-03-19T23:05:40.654Z,0.04
2019-03-19T23:08:11.018Z,0.04
2019-03-19T23:10:41.419Z,0.01
2019-03-19T23:13:12.130Z,0.01
2019-03-19T23:15:42.488Z,0.07
2019-03-19T23:18:13.023Z,0.13
2019-03-19T23:20:43.560Z,0.00
2019-03-19T23:23:13.936Z,0.05
2019-03-19T23:25:45.586Z,0.05
2019-03-19T23:28:15.989Z,0.05
2019-03-19T23:30:46.337Z,-0.01
2019-03-19T23:33:16.672Z,0.02
2019-03-19T23:35:47.010Z,0.08
2019-03-19T23:38:17.600Z,0.09
2019-03-19T23:40:47.934Z,0.11
2019-03-19T23:43:19.634Z,0.07
2019-03-19T23:45:49.966Z,0.05
2019-03-19T23:48:20.293Z,0.03
2019-03-19T23:50:50.727Z,0.02
2019-03-19T23:53:21.065Z,-0.02
2019-03-19T23:55:51.807Z,-0.05
2019-03-19T23:58:22.514Z,-0.03
